Galt, Canada
Current Conditions -  °F | °C
As of 5:00 AM on Sunday 26 Oct 2014 (Local Time) from CYKF Reporting Station
Overcast Overcast  
Wind Chill: 39°   Ceiling: 3900
Heat Index: 46°   Visibility: 9mi
Dew Point: 36°   Wind: 18mph
Humidity: 66%   Direction: 300°WNW
Pressure: 29.67"   Gusts: 24mph
Location:  43.35°N, 80.3°W
Report Text: CYKF 260900Z AUTO 30016G21KT 9SM BKN039 OVC048 08/02 A2967 RMK SLP050
Loading
Personal Weather Stations






























Interactive Weather Map New forecast layout! Learn more

10-Day Weather Forecast

Advertisements
Track Severe Weather on mobile